sensor_id;sensor_type;location;lat;lon;timestamp;pressure;altitude;pressure_sealevel;temperature;humidity
52777;BME280;38656;54.260;20.822;2023-06-01T00:02:14;100922.91;;;17.70;77.88
52777;BME280;38656;54.260;20.822;2023-06-01T00:04:40;100920.00;;;17.29;79.40
52777;BME280;38656;54.260;20.822;2023-06-01T00:07:08;100923.31;;;17.05;80.28
52777;BME280;38656;54.260;20.822;2023-06-01T00:09:34;100927.50;;;17.25;79.88
52777;BME280;38656;54.260;20.822;2023-06-01T00:12:00;100921.59;;;17.66;77.44
52777;BME280;38656;54.260;20.822;2023-06-01T00:14:26;100915.50;;;16.75;81.83
52777;BME280;38656;54.260;20.822;2023-06-01T00:16:52;100920.75;;;17.39;78.49
52777;BME280;38656;54.260;20.822;2023-06-01T00:19:19;100918.19;;;17.56;77.97
52777;BME280;38656;54.260;20.822;2023-06-01T00:21:46;100916.84;;;17.60;77.78
52777;BME280;38656;54.260;20.822;2023-06-01T00:24:13;100917.69;;;17.34;77.81
52777;BME280;38656;54.260;20.822;2023-06-01T00:26:39;100909.44;;;17.45;76.30
52777;BME280;38656;54.260;20.822;2023-06-01T00:29:05;100909.75;;;17.42;75.79
52777;BME280;38656;54.260;20.822;2023-06-01T00:31:31;100911.63;;;17.24;76.95
52777;BME280;38656;54.260;20.822;2023-06-01T00:33:57;100909.69;;;17.34;75.20
52777;BME280;38656;54.260;20.822;2023-06-01T00:36:23;100915.34;;;17.31;75.79
52777;BME280;38656;54.260;20.822;2023-06-01T00:38:49;100908.50;;;17.28;75.42
52777;BME280;38656;54.260;20.822;2023-06-01T00:41:16;100905.91;;;17.19;76.25
52777;BME280;38656;54.260;20.822;2023-06-01T00:43:42;100906.47;;;16.68;79.11
52777;BME280;38656;54.260;20.822;2023-06-01T00:46:08;100908.75;;;16.99;78.08
52777;BME280;38656;54.260;20.822;2023-06-01T00:48:36;100904.47;;;16.70;80.87
52777;BME280;38656;54.260;20.822;2023-06-01T00:51:02;100910.31;;;16.74;79.74
52777;BME280;38656;54.260;20.822;2023-06-01T00:53:28;100902.41;;;16.82;78.42
52777;BME280;38656;54.260;20.822;2023-06-01T00:55:54;100896.38;;;16.98;76.31
52777;BME280;38656;54.260;20.822;2023-06-01T00:58:21;100893.06;;;16.96;77.30
52777;BME280;38656;54.260;20.822;2023-06-01T01:00:47;100889.59;;;16.86;78.42
52777;BME280;38656;54.260;20.822;2023-06-01T01:03:14;100891.38;;;16.95;77.01
52777;BME280;38656;54.260;20.822;2023-06-01T01:05:41;100892.13;;;16.69;78.13
52777;BME280;38656;54.260;20.822;2023-06-01T01:08:24;100894.09;;;16.67;77.89
52777;BME280;38656;54.260;20.822;2023-06-01T01:11:15;100882.75;;;16.47;79.07
52777;BME280;38656;54.260;20.822;2023-06-01T01:13:55;100882.28;;;16.52;80.43
52777;BME280;38656;54.260;20.822;2023-06-01T01:16:35;100878.00;;;16.41;80.17
52777;BME280;38656;54.260;20.822;2023-06-01T01:27:59;100868.50;;;16.38;77.88
52777;BME280;38656;54.260;20.822;2023-06-01T01:30:36;100878.34;;;15.82;82.35
52777;BME280;38656;54.260;20.822;2023-06-01T01:33:03;100874.56;;;16.13;81.79
52777;BME280;38656;54.260;20.822;2023-06-01T01:35:31;100871.41;;;15.99;83.46
52777;BME280;38656;54.260;20.822;2023-06-01T01:37:58;100862.13;;;15.66;87.01
52777;BME280;38656;54.260;20.822;2023-06-01T01:40:24;100864.44;;;16.16;82.57
52777;BME280;38656;54.260;20.822;2023-06-01T01:42:51;100860.69;;;16.27;81.29
52777;BME280;38656;54.260;20.822;2023-06-01T01:45:18;100866.53;;;15.95;82.56
52777;BME280;38656;54.260;20.822;2023-06-01T01:47:56;100871.19;;;15.83;84.63
52777;BME280;38656;54.260;20.822;2023-06-01T01:50:27;100869.28;;;15.08;90.80
52777;BME280;38656;54.260;20.822;2023-06-01T01:52:56;100870.94;;;15.19;93.55
52777;BME280;38656;54.260;20.822;2023-06-01T01:55:24;100861.53;;;15.34;92.07
52777;BME280;38656;54.260;20.822;2023-06-01T01:57:53;100866.56;;;15.75;87.76
52777;BME280;38656;54.260;20.822;2023-06-01T02:00:20;100863.09;;;16.02;85.52
52777;BME280;38656;54.260;20.822;2023-06-01T02:02:46;100865.06;;;16.28;82.96
52777;BME280;38656;54.260;20.822;2023-06-01T02:05:13;100857.09;;;16.18;83.13
52777;BME280;38656;54.260;20.822;2023-06-01T02:07:39;100855.91;;;16.13;81.64
52777;BME280;38656;54.260;20.822;2023-06-01T02:10:06;100867.16;;;16.06;81.50
52777;BME280;38656;54.260;20.822;2023-06-01T02:12:32;100867.53;;;16.12;80.92
52777;BME280;38656;54.260;20.822;2023-06-01T02:14:58;100869.22;;;16.13;79.62
52777;BME280;38656;54.260;20.822;2023-06-01T02:17:24;100873.75;;;16.02;81.45
52777;BME280;38656;54.260;20.822;2023-06-01T02:19:53;100868.13;;;16.05;80.46
52777;BME280;38656;54.260;20.822;2023-06-01T02:22:19;100865.66;;;15.94;79.72
52777;BME280;38656;54.260;20.822;2023-06-01T02:24:45;100866.75;;;16.01;79.41
52777;BME280;38656;54.260;20.822;2023-06-01T02:27:11;100864.78;;;16.03;79.19
52777;BME280;38656;54.260;20.822;2023-06-01T02:29:37;100861.56;;;16.00;79.35
52777;BME280;38656;54.260;20.822;2023-06-01T02:32:04;100862.50;;;16.08;79.02
52777;BME280;38656;54.260;20.822;2023-06-01T02:34:30;100861.09;;;16.14;78.73
52777;BME280;38656;54.260;20.822;2023-06-01T02:36:57;100853.13;;;15.39;85.08
52777;BME280;38656;54.260;20.822;2023-06-01T02:39:23;100853.59;;;16.00;83.02
52777;BME280;38656;54.260;20.822;2023-06-01T02:41:50;100859.88;;;16.26;80.38
52777;BME280;38656;54.260;20.822;2023-06-01T02:44:16;100857.44;;;16.33;80.42
52777;BME280;38656;54.260;20.822;2023-06-01T02:46:42;100852.03;;;16.25;80.21
52777;BME280;38656;54.260;20.822;2023-06-01T02:49:09;100849.38;;;16.25;81.43
52777;BME280;38656;54.260;20.822;2023-06-01T02:51:35;100850.91;;;16.27;80.52
52777;BME280;38656;54.260;20.822;2023-06-01T02:54:01;100856.75;;;16.31;80.14
52777;BME280;38656;54.260;20.822;2023-06-01T02:56:27;100856.97;;;16.20;81.97
52777;BME280;38656;54.260;20.822;2023-06-01T02:58:53;100856.88;;;16.12;83.41
52777;BME280;38656;54.260;20.822;2023-06-01T03:01:19;100853.31;;;15.08;90.44
52777;BME280;38656;54.260;20.822;2023-06-01T03:03:46;100850.44;;;15.77;89.42
52777;BME280;38656;54.260;20.822;2023-06-01T03:06:13;100848.09;;;16.29;85.72
52777;BME280;38656;54.260;20.822;2023-06-01T03:08:39;100847.63;;;16.52;82.73
52777;BME280;38656;54.260;20.822;2023-06-01T03:11:05;100844.72;;;16.63;81.64
52777;BME280;38656;54.260;20.822;2023-06-01T03:13:32;100841.91;;;16.64;81.54
52777;BME280;38656;54.260;20.822;2023-06-01T03:15:58;100828.66;;;16.73;80.68
52777;BME280;38656;54.260;20.822;2023-06-01T03:18:24;100832.31;;;16.90;80.66
52777;BME280;38656;54.260;20.822;2023-06-01T03:20:50;100824.13;;;17.09;79.84
52777;BME280;38656;54.260;20.822;2023-06-01T03:23:16;100824.13;;;17.09;80.35
52777;BME280;38656;54.260;20.822;2023-06-01T03:25:42;100827.75;;;17.08;81.67
52777;BME280;38656;54.260;20.822;2023-06-01T03:28:08;100827.34;;;17.47;78.76
52777;BME280;38656;54.260;20.822;2023-06-01T03:30:34;100828.88;;;17.58;77.92
52777;BME280;38656;54.260;20.822;2023-06-01T03:33:01;100826.97;;;17.77;78.96
52777;BME280;38656;54.260;20.822;2023-06-01T03:35:27;100823.91;;;17.98;78.56
52777;BME280;38656;54.260;20.822;2023-06-01T03:37:53;100818.41;;;18.08;79.22
52777;BME280;38656;54.260;20.822;2023-06-01T03:40:19;100810.78;;;17.86;81.16
52777;BME280;38656;54.260;20.822;2023-06-01T03:42:47;100814.53;;;17.59;85.97
52777;BME280;38656;54.260;20.822;2023-06-01T03:45:14;100816.31;;;16.72;91.88
52777;BME280;38656;54.260;20.822;2023-06-01T03:47:42;100808.44;;;18.34;84.79
52777;BME280;38656;54.260;20.822;2023-06-01T03:50:10;100810.81;;;17.17;89.39
52777;BME280;38656;54.260;20.822;2023-06-01T03:52:37;100811.03;;;17.59;91.22
52777;BME280;38656;54.260;20.822;2023-06-01T03:55:05;100809.69;;;16.76;92.02
52777;BME280;38656;54.260;20.822;2023-06-01T03:57:34;100811.78;;;17.77;86.35
52777;BME280;38656;54.260;20.822;2023-06-01T04:00:02;100820.13;;;17.40;88.54
52777;BME280;38656;54.260;20.822;2023-06-01T04:02:51;100810.47;;;18.57;85.92
52777;BME280;38656;54.260;20.822;2023-06-01T04:05:19;100806.63;;;18.76;84.39
52777;BME280;38656;54.260;20.822;2023-06-01T04:07:47;100807.53;;;18.01;86.86
52777;BME280;38656;54.260;20.822;2023-06-01T04:10:14;100802.09;;;18.35;86.48
52777;BME280;38656;54.260;20.822;2023-06-01T04:12:43;100806.41;;;18.36;88.63
52777;BME280;38656;54.260;20.822;2023-06-01T04:15:11;100791.41;;;18.35;87.11
52777;BME280;38656;54.260;20.822;2023-06-01T04:17:38;100792.44;;;19.48;83.01
52777;BME280;38656;54.260;20.822;2023-06-01T04:20:08;100783.84;;;19.05;85.62
52777;BME280;38656;54.260;20.822;2023-06-01T04:22:38;100785.22;;;18.43;85.73
52777;BME280;38656;54.260;20.822;2023-06-01T04:25:08;100790.06;;;19.45;84.32
52777;BME280;38656;54.260;20.822;2023-06-01T04:27:35;100787.50;;;19.20;83.10
52777;BME280;38656;54.260;20.822;2023-06-01T04:30:04;100791.84;;;19.21;83.63
52777;BME280;38656;54.260;20.822;2023-06-01T04:32:34;100795.03;;;18.18;89.41
52777;BME280;38656;54.260;20.822;2023-06-01T04:35:01;100789.41;;;17.86;90.78
52777;BME280;38656;54.260;20.822;2023-06-01T04:37:33;100792.19;;;17.26;92.90
52777;BME280;38656;54.260;20.822;2023-06-01T04:40:03;100790.47;;;17.94;91.14
52777;BME280;38656;54.260;20.822;2023-06-01T04:42:34;100787.19;;;18.74;90.33
52777;BME280;38656;54.260;20.822;2023-06-01T04:45:01;100775.88;;;18.47;88.95
52777;BME280;38656;54.260;20.822;2023-06-01T04:47:31;100785.94;;;19.82;85.89
52777;BME280;38656;54.260;20.822;2023-06-01T04:49:58;100788.47;;;19.27;87.14
52777;BME280;38656;54.260;20.822;2023-06-01T04:52:24;100788.59;;;20.37;80.85
52777;BME280;38656;54.260;20.822;2023-06-01T04:54:50;100788.03;;;19.07;87.87
52777;BME280;38656;54.260;20.822;2023-06-01T04:57:17;100788.81;;;20.50;81.37
52777;BME280;38656;54.260;20.822;2023-06-01T04:59:45;100785.19;;;19.01;87.26
52777;BME280;38656;54.260;20.822;2023-06-01T05:02:11;100786.38;;;18.57;89.97
52777;BME280;38656;54.260;20.822;2023-06-01T05:04:38;100786.50;;;19.13;90.44
52777;BME280;38656;54.260;20.822;2023-06-01T05:07:04;100780.81;;;21.03;84.21
52777;BME280;38656;54.260;20.822;2023-06-01T05:09:31;100779.41;;;20.54;84.57
52777;BME280;38656;54.260;20.822;2023-06-01T05:11:57;100782.94;;;21.37;82.53
52777;BME280;38656;54.260;20.822;2023-06-01T05:14:24;100772.94;;;20.63;83.06
52777;BME280;38656;54.260;20.822;2023-06-01T05:16:50;100778.00;;;20.43;85.12
52777;BME280;38656;54.260;20.822;2023-06-01T05:19:16;100780.59;;;20.05;85.86
52777;BME280;38656;54.260;20.822;2023-06-01T05:21:43;100770.66;;;21.58;81.00
52777;BME280;38656;54.260;20.822;2023-06-01T05:24:09;100781.59;;;20.36;85.54
52777;BME280;38656;54.260;20.822;2023-06-01T05:26:36;100776.72;;;20.92;85.44
52777;BME280;38656;54.260;20.822;2023-06-01T05:29:02;100773.44;;;20.44;85.06
52777;BME280;38656;54.260;20.822;2023-06-01T05:31:29;100780.09;;;20.94;84.51
52777;BME280;38656;54.260;20.822;2023-06-01T05:33:57;100780.34;;;22.10;81.00
52777;BME280;38656;54.260;20.822;2023-06-01T05:36:23;100782.16;;;22.47;78.41
52777;BME280;38656;54.260;20.822;2023-06-01T05:38:49;100776.31;;;22.21;78.99
52777;BME280;38656;54.260;20.822;2023-06-01T05:41:15;100776.44;;;20.26;86.21
52777;BME280;38656;54.260;20.822;2023-06-01T05:43:42;100769.06;;;22.00;81.89
52777;BME280;38656;54.260;20.822;2023-06-01T05:46:08;100773.13;;;21.74;80.99
52777;BME280;38656;54.260;20.822;2023-06-01T05:48:34;100766.72;;;21.76;83.60
52777;BME280;38656;54.260;20.822;2023-06-01T05:51:00;100762.91;;;22.06;80.15
52777;BME280;38656;54.260;20.822;2023-06-01T05:53:26;100767.28;;;20.81;86.67
52777;BME280;38656;54.260;20.822;2023-06-01T05:55:53;100764.88;;;20.48;87.38
52777;BME280;38656;54.260;20.822;2023-06-01T05:58:19;100757.63;;;21.77;84.96
52777;BME280;38656;54.260;20.822;2023-06-01T06:00:46;100751.88;;;22.66;80.26
52777;BME280;38656;54.260;20.822;2023-06-01T06:03:12;100758.22;;;21.27;82.62
52777;BME280;38656;54.260;20.822;2023-06-01T06:05:39;100752.47;;;22.40;81.07
52777;BME280;38656;54.260;20.822;2023-06-01T06:08:05;100757.66;;;21.47;83.82
52777;BME280;38656;54.260;20.822;2023-06-01T06:10:31;100760.22;;;20.65;85.83
52777;BME280;38656;54.260;20.822;2023-06-01T06:12:57;100748.00;;;21.67;87.00
52777;BME280;38656;54.260;20.822;2023-06-01T06:15:23;100751.91;;;22.23;81.96
52777;BME280;38656;54.260;20.822;2023-06-01T06:17:50;100756.56;;;22.86;80.48
52777;BME280;38656;54.260;20.822;2023-06-01T06:20:16;100752.31;;;23.33;80.66
52777;BME280;38656;54.260;20.822;2023-06-01T06:22:42;100752.84;;;21.42;86.02
52777;BME280;38656;54.260;20.822;2023-06-01T06:25:09;100749.78;;;22.61;81.63
52777;BME280;38656;54.260;20.822;2023-06-01T06:27:37;100756.78;;;22.84;80.97
52777;BME280;38656;54.260;20.822;2023-06-01T06:30:04;100741.75;;;23.87;78.71
52777;BME280;38656;54.260;20.822;2023-06-01T06:32:30;100743.75;;;22.88;76.68
52777;BME280;38656;54.260;20.822;2023-06-01T06:34:56;100741.78;;;22.47;79.64
52777;BME280;38656;54.260;20.822;2023-06-01T06:37:22;100738.00;;;22.97;79.67
52777;BME280;38656;54.260;20.822;2023-06-01T06:39:48;100745.56;;;24.39;73.66
52777;BME280;38656;54.260;20.822;2023-06-01T06:42:14;100745.31;;;23.45;76.49
52777;BME280;38656;54.260;20.822;2023-06-01T06:44:41;100749.53;;;23.68;77.31
52777;BME280;38656;54.260;20.822;2023-06-01T06:47:07;100744.41;;;23.25;74.04
52777;BME280;38656;54.260;20.822;2023-06-01T06:49:33;100744.81;;;22.65;81.49
52777;BME280;38656;54.260;20.822;2023-06-01T06:51:59;100737.25;;;24.41;74.74
52777;BME280;38656;54.260;20.822;2023-06-01T06:54:26;100734.53;;;22.75;80.20
52777;BME280;38656;54.260;20.822;2023-06-01T06:56:52;100736.81;;;24.50;71.72
52777;BME280;38656;54.260;20.822;2023-06-01T06:59:18;100738.84;;;22.98;76.71
52777;BME280;38656;54.260;20.822;2023-06-01T07:01:44;100730.41;;;24.78;72.98
52777;BME280;38656;54.260;20.822;2023-06-01T07:04:11;100729.75;;;24.49;68.34
52777;BME280;38656;54.260;20.822;2023-06-01T07:06:37;100732.53;;;25.28;67.28
52777;BME280;38656;54.260;20.822;2023-06-01T07:09:03;100732.56;;;23.74;72.18
52777;BME280;38656;54.260;20.822;2023-06-01T07:11:31;100729.53;;;23.01;72.09
52777;BME280;38656;54.260;20.822;2023-06-01T07:13:58;100730.84;;;23.60;70.41
52777;BME280;38656;54.260;20.822;2023-06-01T07:16:24;100733.31;;;24.70;68.56
52777;BME280;38656;54.260;20.822;2023-06-01T07:18:51;100737.34;;;23.24;69.36
52777;BME280;38656;54.260;20.822;2023-06-01T07:21:18;100738.88;;;24.08;69.27
52777;BME280;38656;54.260;20.822;2023-06-01T07:23:45;100730.47;;;25.30;66.82
52777;BME280;38656;54.260;20.822;2023-06-01T07:26:12;100740.13;;;24.12;69.04
52777;BME280;38656;54.260;20.822;2023-06-01T07:28:38;100728.84;;;23.82;69.05
52777;BME280;38656;54.260;20.822;2023-06-01T07:31:04;100728.34;;;23.52;68.22
52777;BME280;38656;54.260;20.822;2023-06-01T07:33:31;100728.06;;;23.95;65.95
52777;BME280;38656;54.260;20.822;2023-06-01T07:35:59;100726.28;;;25.27;64.20
52777;BME280;38656;54.260;20.822;2023-06-01T07:38:25;100727.66;;;23.91;67.92
52777;BME280;38656;54.260;20.822;2023-06-01T07:40:52;100727.25;;;24.95;65.78
52777;BME280;38656;54.260;20.822;2023-06-01T07:43:18;100715.06;;;26.58;60.92
52777;BME280;38656;54.260;20.822;2023-06-01T07:45:44;100725.50;;;25.34;61.36
52777;BME280;38656;54.260;20.822;2023-06-01T07:48:11;100710.19;;;24.94;63.42
52777;BME280;38656;54.260;20.822;2023-06-01T07:50:37;100718.97;;;24.36;65.24
52777;BME280;38656;54.260;20.822;2023-06-01T07:53:03;100718.69;;;25.04;63.05
52777;BME280;38656;54.260;20.822;2023-06-01T07:55:29;100721.16;;;26.79;58.41
52777;BME280;38656;54.260;20.822;2023-06-01T07:57:56;100722.25;;;23.98;65.28
52777;BME280;38656;54.260;20.822;2023-06-01T08:00:22;100706.56;;;27.17;58.29
52777;BME280;38656;54.260;20.822;2023-06-01T08:02:48;100716.41;;;26.49;53.17
52777;BME280;38656;54.260;20.822;2023-06-01T08:05:14;100724.66;;;26.61;55.18
52777;BME280;38656;54.260;20.822;2023-06-01T08:07:43;100723.59;;;25.79;54.50
52777;BME280;38656;54.260;20.822;2023-06-01T08:10:10;100720.66;;;25.81;53.23
52777;BME280;38656;54.260;20.822;2023-06-01T08:12:36;100722.94;;;26.16;54.36
52777;BME280;38656;54.260;20.822;2023-06-01T08:15:03;100715.94;;;26.59;51.34
52777;BME280;38656;54.260;20.822;2023-06-01T08:17:30;100715.06;;;28.00;50.48
52777;BME280;38656;54.260;20.822;2023-06-01T08:19:56;100705.81;;;26.22;52.21
52777;BME280;38656;54.260;20.822;2023-06-01T08:22:23;100708.44;;;27.16;51.88
52777;BME280;38656;54.260;20.822;2023-06-01T08:24:50;100713.97;;;24.73;55.40
52777;BME280;38656;54.260;20.822;2023-06-01T08:27:26;100707.00;;;25.17;55.60
52777;BME280;38656;54.260;20.822;2023-06-01T08:29:53;100714.97;;;24.85;54.97
52777;BME280;38656;54.260;20.822;2023-06-01T08:32:20;100709.44;;;25.39;53.57
52777;BME280;38656;54.260;20.822;2023-06-01T08:34:46;100690.91;;;27.00;50.36
52777;BME280;38656;54.260;20.822;2023-06-01T08:37:15;100694.78;;;26.67;48.35
52777;BME280;38656;54.260;20.822;2023-06-01T08:39:42;100704.31;;;26.26;49.46
52777;BME280;38656;54.260;20.822;2023-06-01T08:44:48;100693.94;;;26.92;47.56
52777;BME280;38656;54.260;20.822;2023-06-01T08:47:19;100694.56;;;25.93;48.18
52777;BME280;38656;54.260;20.822;2023-06-01T08:49:45;100694.28;;;26.34;48.90
52777;BME280;38656;54.260;20.822;2023-06-01T08:52:13;100694.19;;;25.51;48.25
52777;BME280;38656;54.260;20.822;2023-06-01T08:54:40;100693.16;;;27.22;47.31
52777;BME280;38656;54.260;20.822;2023-06-01T08:57:07;100691.38;;;26.54;48.22
52777;BME280;38656;54.260;20.822;2023-06-01T08:59:34;100689.41;;;27.05;45.65
52777;BME280;38656;54.260;20.822;2023-06-01T09:02:01;100682.06;;;26.24;48.72
52777;BME280;38656;54.260;20.822;2023-06-01T09:04:28;100686.59;;;27.11;46.77
52777;BME280;38656;54.260;20.822;2023-06-01T09:06:57;100691.03;;;27.43;46.65
52777;BME280;38656;54.260;20.822;2023-06-01T09:09:23;100688.25;;;29.51;41.54
52777;BME280;38656;54.260;20.822;2023-06-01T09:14:46;100690.47;;;29.54;42.90
52777;BME280;38656;54.260;20.822;2023-06-01T09:17:21;100690.97;;;29.51;41.44
52777;BME280;38656;54.260;20.822;2023-06-01T09:19:50;100689.53;;;29.60;41.15
52777;BME280;38656;54.260;20.822;2023-06-01T09:22:17;100677.34;;;31.31;38.56
52777;BME280;38656;54.260;20.822;2023-06-01T09:24:55;100687.09;;;27.99;42.52
52777;BME280;38656;54.260;20.822;2023-06-01T09:27:22;100683.97;;;26.67;45.62
52777;BME280;38656;54.260;20.822;2023-06-01T09:29:56;100683.94;;;28.14;45.09
52777;BME280;38656;54.260;20.822;2023-06-01T09:32:25;100682.16;;;27.66;44.65
52777;BME280;38656;54.260;20.822;2023-06-01T09:34:51;100685.16;;;27.27;46.74
52777;BME280;38656;54.260;20.822;2023-06-01T09:37:17;100682.56;;;29.11;43.67
52777;BME280;38656;54.260;20.822;2023-06-01T09:39:44;100682.31;;;27.83;43.91
52777;BME280;38656;54.260;20.822;2023-06-01T09:42:10;100677.81;;;29.76;41.88
52777;BME280;38656;54.260;20.822;2023-06-01T09:44:39;100691.75;;;30.09;41.05
52777;BME280;38656;54.260;20.822;2023-06-01T09:47:07;100691.97;;;26.99;45.68
52777;BME280;38656;54.260;20.822;2023-06-01T09:49:37;100683.09;;;28.14;46.46
52777;BME280;38656;54.260;20.822;2023-06-01T09:54:32;100671.16;;;31.13;39.00
52777;BME280;38656;54.260;20.822;2023-06-01T09:57:00;100683.97;;;26.67;45.42
52777;BME280;38656;54.260;20.822;2023-06-01T09:59:28;100678.13;;;26.64;45.58
52777;BME280;38656;54.260;20.822;2023-06-01T10:01:56;100679.94;;;25.69;47.43
52777;BME280;38656;54.260;20.822;2023-06-01T10:04:27;100680.97;;;26.94;46.40
52777;BME280;38656;54.260;20.822;2023-06-01T10:06:56;100677.09;;;28.12;43.77
52777;BME280;38656;54.260;20.822;2023-06-01T10:09:24;100659.78;;;31.21;39.05
52777;BME280;38656;54.260;20.822;2023-06-01T10:11:54;100668.03;;;27.76;43.21
52777;BME280;38656;54.260;20.822;2023-06-01T10:14:26;100676.41;;;29.28;40.97
52777;BME280;38656;54.260;20.822;2023-06-01T10:16:53;100661.22;;;31.02;38.45
52777;BME280;38656;54.260;20.822;2023-06-01T10:19:21;100668.75;;;27.41;44.46
52777;BME280;38656;54.260;20.822;2023-06-01T10:21:48;100668.00;;;28.30;44.11
52777;BME280;38656;54.260;20.822;2023-06-01T10:24:16;100658.22;;;30.42;41.26
52777;BME280;38656;54.260;20.822;2023-06-01T10:29:41;100663.78;;;29.10;41.31
52777;BME280;38656;54.260;20.822;2023-06-01T10:35:04;100669.09;;;25.76;49.08
52777;BME280;38656;54.260;20.822;2023-06-01T10:37:30;100672.44;;;24.61;51.73
52777;BME280;38656;54.260;20.822;2023-06-01T10:42:45;100654.78;;;28.10;45.84
52777;BME280;38656;54.260;20.822;2023-06-01T10:48:02;100656.09;;;30.10;41.65
52777;BME280;38656;54.260;20.822;2023-06-01T10:50:29;100656.91;;;30.45;41.08
52777;BME280;38656;54.260;20.822;2023-06-01T10:52:56;100656.75;;;32.05;38.76
52777;BME280;38656;54.260;20.822;2023-06-01T10:55:42;100654.13;;;29.89;40.44
52777;BME280;38656;54.260;20.822;2023-06-01T10:58:22;100661.47;;;28.90;42.68
52777;BME280;38656;54.260;20.822;2023-06-01T11:00:51;100656.72;;;31.67;39.45
52777;BME280;38656;54.260;20.822;2023-06-01T11:03:44;100655.66;;;31.19;38.47
52777;BME280;38656;54.260;20.822;2023-06-01T11:08:59;100676.03;;;30.50;40.77
52777;BME280;38656;54.260;20.822;2023-06-01T11:14:22;100663.81;;;30.18;40.79
52777;BME280;38656;54.260;20.822;2023-06-01T11:16:50;100664.66;;;29.85;42.06
52777;BME280;38656;54.260;20.822;2023-06-01T11:19:23;100663.75;;;30.47;41.17
52777;BME280;38656;54.260;20.822;2023-06-01T11:21:58;100668.44;;;28.86;42.84
52777;BME280;38656;54.260;20.822;2023-06-01T11:24:38;100671.56;;;28.77;43.84
52777;BME280;38656;54.260;20.822;2023-06-01T11:27:09;100667.38;;;29.39;43.88
52777;BME280;38656;54.260;20.822;2023-06-01T11:29:36;100667.59;;;30.51;41.88
52777;BME280;38656;54.260;20.822;2023-06-01T11:32:04;100661.53;;;30.10;41.26
52777;BME280;38656;54.260;20.822;2023-06-01T11:37:04;100663.41;;;29.30;43.69
52777;BME280;38656;54.260;20.822;2023-06-01T11:42:05;100662.34;;;30.28;42.02
52777;BME280;38656;54.260;20.822;2023-06-01T11:44:36;100667.00;;;29.93;42.40
52777;BME280;38656;54.260;20.822;2023-06-01T11:47:04;100666.28;;;29.69;43.92
52777;BME280;38656;54.260;20.822;2023-06-01T11:49:45;100671.69;;;29.11;43.52
52777;BME280;38656;54.260;20.822;2023-06-01T11:52:14;100672.63;;;29.29;42.94
52777;BME280;38656;54.260;20.822;2023-06-01T11:54:40;100662.06;;;31.30;41.12
52777;BME280;38656;54.260;20.822;2023-06-01T11:57:07;100655.03;;;31.39;40.01
52777;BME280;38656;54.260;20.822;2023-06-01T11:59:41;100653.34;;;30.83;41.33
52777;BME280;38656;54.260;20.822;2023-06-01T12:02:23;100654.91;;;29.72;42.80
52777;BME280;38656;54.260;20.822;2023-06-01T12:07:25;100664.41;;;29.41;40.76
52777;BME280;38656;54.260;20.822;2023-06-01T12:09:52;100660.31;;;31.18;41.12
52777;BME280;38656;54.260;20.822;2023-06-01T12:12:25;100652.44;;;31.00;40.10
52777;BME280;38656;54.260;20.822;2023-06-01T12:14:55;100652.34;;;30.95;39.36
52777;BME280;38656;54.260;20.822;2023-06-01T12:17:22;100655.88;;;31.39;38.46
52777;BME280;38656;54.260;20.822;2023-06-01T12:19:49;100649.81;;;31.32;38.97
52777;BME280;38656;54.260;20.822;2023-06-01T12:22:16;100652.13;;;32.05;38.11
52777;BME280;38656;54.260;20.822;2023-06-01T12:24:43;100647.47;;;30.52;40.49
52777;BME280;38656;54.260;20.822;2023-06-01T12:27:19;100649.91;;;31.70;38.45
52777;BME280;38656;54.260;20.822;2023-06-01T12:29:46;100661.00;;;30.30;39.68
52777;BME280;38656;54.260;20.822;2023-06-01T12:32:14;100662.50;;;31.71;37.89
52777;BME280;38656;54.260;20.822;2023-06-01T12:35:01;100649.28;;;31.08;38.72
52777;BME280;38656;54.260;20.822;2023-06-01T12:37:28;100654.44;;;31.32;37.69
52777;BME280;38656;54.260;20.822;2023-06-01T12:39:55;100651.13;;;31.30;37.96
52777;BME280;38656;54.260;20.822;2023-06-01T12:42:38;100652.44;;;31.22;37.77
52777;BME280;38656;54.260;20.822;2023-06-01T12:45:06;100654.50;;;31.37;38.10
52777;BME280;38656;54.260;20.822;2023-06-01T12:47:40;100653.31;;;31.82;38.30
52777;BME280;38656;54.260;20.822;2023-06-01T12:50:09;100652.19;;;30.79;38.09
52777;BME280;38656;54.260;20.822;2023-06-01T12:52:36;100641.13;;;32.33;37.18
52777;BME280;38656;54.260;20.822;2023-06-01T12:55:02;100642.28;;;30.73;38.09
52777;BME280;38656;54.260;20.822;2023-06-01T12:57:32;100650.13;;;29.79;39.60
52777;BME280;38656;54.260;20.822;2023-06-01T12:59:59;100639.19;;;30.86;37.67
52777;BME280;38656;54.260;20.822;2023-06-01T13:02:26;100645.72;;;30.85;39.63
52777;BME280;38656;54.260;20.822;2023-06-01T13:04:52;100646.59;;;30.69;39.31
52777;BME280;38656;54.260;20.822;2023-06-01T13:07:24;100644.19;;;30.95;38.74
52777;BME280;38656;54.260;20.822;2023-06-01T13:09:50;100639.47;;;30.46;39.10
52777;BME280;38656;54.260;20.822;2023-06-01T13:12:17;100643.06;;;31.13;39.17
52777;BME280;38656;54.260;20.822;2023-06-01T13:14:44;100636.44;;;31.09;38.63
52777;BME280;38656;54.260;20.822;2023-06-01T13:17:11;100648.97;;;30.09;39.30
52777;BME280;38656;54.260;20.822;2023-06-01T13:19:37;100645.25;;;30.15;39.00
52777;BME280;38656;54.260;20.822;2023-06-01T13:22:03;100639.06;;;30.03;39.59
52777;BME280;38656;54.260;20.822;2023-06-01T13:24:30;100648.13;;;30.26;39.05
52777;BME280;38656;54.260;20.822;2023-06-01T13:26:56;100636.75;;;32.32;36.90